Decoded Metar for PFWS ( in ) (IATA:) | Meteo·Mobile Aviation Weather
aviador You're here:

PFWS Decoded Metar

in
Report Time2019-04-26 08:56:00
UTC Time2019-04-26 10:00:32
Flight Rules vfr VFR
WindVRB at 04 kt
Visibility9999 m
Phenomena:N/A
Clouds:N/A
Expected CloudBase > 2,400 ft AGL from Temp-Dew spread
CeilingNone
Temp02°C
Dew Point-4°C (65% RH)
AAT-1.9°C
QNH1026 hPa
Raw Report
PFWS 260856Z AUTO VRB04KT 10SM CLR 02/M04 A3029 RMK AO2 SLP261
T00171039 400781033 51016 FZRANO=

Extra information for PFWS:More info

Social comments